sensor_id;sensor_type;location;lat;lon;timestamp;pressure;altitude;pressure_sealevel;temperature;humidity
46408;BME280;32110;45.724;21.276;2023-12-28T00:00:47;101582.00;;;0.96;nan
46408;BME280;32110;45.724;21.276;2023-12-28T00:03:13;101584.06;;;0.92;nan
46408;BME280;32110;45.724;21.276;2023-12-28T00:05:38;101596.53;;;0.98;nan
46408;BME280;32110;45.724;21.276;2023-12-28T00:08:04;101593.22;;;0.96;nan
46408;BME280;32110;45.724;21.276;2023-12-28T00:10:29;101604.53;;;0.95;nan
46408;BME280;32110;45.724;21.276;2023-12-28T00:12:55;101600.03;;;0.88;nan
46408;BME280;32110;45.724;21.276;2023-12-28T00:15:21;101598.41;;;0.87;nan
46408;BME280;32110;45.724;21.276;2023-12-28T00:17:46;101604.22;;;0.79;nan
46408;BME280;32110;45.724;21.276;2023-12-28T00:20:12;101602.84;;;0.75;nan
46408;BME280;32110;45.724;21.276;2023-12-28T00:22:37;101607.78;;;0.78;nan
46408;BME280;32110;45.724;21.276;2023-12-28T00:25:04;101613.06;;;0.76;nan
46408;BME280;32110;45.724;21.276;2023-12-28T00:27:29;101609.28;;;0.80;nan
46408;BME280;32110;45.724;21.276;2023-12-28T00:29:55;101603.00;;;0.83;nan
46408;BME280;32110;45.724;21.276;2023-12-28T02:04:26;101541.94;;;0.29;nan
46408;BME280;32110;45.724;21.276;2023-12-28T02:06:59;101521.47;;;0.26;nan
46408;BME280;32110;45.724;21.276;2023-12-28T02:09:24;101538.72;;;0.36;nan
46408;BME280;32110;45.724;21.276;2023-12-28T02:11:50;101517.13;;;0.26;nan
46408;BME280;32110;45.724;21.276;2023-12-28T02:14:17;101523.69;;;0.30;nan
46408;BME280;32110;45.724;21.276;2023-12-28T02:16:49;101518.50;;;0.30;nan
46408;BME280;32110;45.724;21.276;2023-12-28T02:19:32;101531.50;;;0.40;nan
46408;BME280;32110;45.724;21.276;2023-12-28T02:22:04;101519.09;;;0.34;nan
46408;BME280;32110;45.724;21.276;2023-12-28T02:24:30;101476.88;;;0.12;nan
46408;BME280;32110;45.724;21.276;2023-12-28T02:26:55;101529.59;;;0.42;nan
46408;BME280;32110;45.724;21.276;2023-12-28T02:29:21;101493.38;;;0.21;nan
46408;BME280;32110;45.724;21.276;2023-12-28T02:31:52;101480.97;;;0.15;nan
46408;BME280;32110;45.724;21.276;2023-12-28T02:34:29;101521.00;;;0.41;nan
46408;BME280;32110;45.724;21.276;2023-12-28T02:36:57;101525.66;;;0.48;nan
46408;BME280;32110;45.724;21.276;2023-12-28T02:39:23;101513.78;;;0.45;nan
46408;BME280;32110;45.724;21.276;2023-12-28T02:41:50;101494.25;;;0.31;nan
46408;BME280;32110;45.724;21.276;2023-12-28T02:44:15;101499.72;;;0.38;nan
46408;BME280;32110;45.724;21.276;2023-12-28T02:46:41;101513.53;;;0.48;nan
46408;BME280;32110;45.724;21.276;2023-12-28T02:49:06;101509.03;;;0.50;nan
46408;BME280;32110;45.724;21.276;2023-12-28T02:51:32;101481.44;;;0.39;nan
46408;BME280;32110;45.724;21.276;2023-12-28T02:53:57;101455.09;;;0.25;nan
46408;BME280;32110;45.724;21.276;2023-12-28T02:56:22;101494.84;;;0.54;nan
46408;BME280;32110;45.724;21.276;2023-12-28T02:58:48;101504.84;;;0.59;nan
46408;BME280;32110;45.724;21.276;2023-12-28T03:01:13;101467.81;;;0.37;nan
46408;BME280;32110;45.724;21.276;2023-12-28T03:03:39;101494.59;;;0.57;nan
46408;BME280;32110;45.724;21.276;2023-12-28T03:06:04;101480.97;;;0.55;nan
46408;BME280;32110;45.724;21.276;2023-12-28T03:08:30;101438.59;;;0.26;nan
46408;BME280;32110;45.724;21.276;2023-12-28T03:10:55;101481.91;;;0.54;nan
46408;BME280;32110;45.724;21.276;2023-12-28T03:13:21;101476.72;;;0.54;nan
46408;BME280;32110;45.724;21.276;2023-12-28T03:15:46;101479.47;;;0.62;nan
46408;BME280;32110;45.724;21.276;2023-12-28T03:18:12;101479.34;;;0.64;nan
46408;BME280;32110;45.724;21.276;2023-12-28T03:20:37;101465.03;;;0.60;nan
46408;BME280;32110;45.724;21.276;2023-12-28T03:23:02;101470.63;;;0.65;nan
46408;BME280;32110;45.724;21.276;2023-12-28T03:25:28;101445.19;;;0.49;nan
46408;BME280;32110;45.724;21.276;2023-12-28T03:27:54;101474.03;;;0.66;nan
46408;BME280;32110;45.724;21.276;2023-12-28T03:30:20;101473.75;;;0.69;nan
46408;BME280;32110;45.724;21.276;2023-12-28T03:32:45;101473.44;;;0.62;nan
46408;BME280;32110;45.724;21.276;2023-12-28T03:35:11;101471.03;;;0.70;nan
46408;BME280;32110;45.724;21.276;2023-12-28T05:31:29;101400.06;;;0.61;nan
46408;BME280;32110;45.724;21.276;2023-12-28T05:33:54;101416.72;;;0.69;nan
46408;BME280;32110;45.724;21.276;2023-12-28T05:36:20;101400.22;;;0.60;nan
46408;BME280;32110;45.724;21.276;2023-12-28T05:38:45;101357.09;;;0.39;nan
46408;BME280;32110;45.724;21.276;2023-12-28T05:41:11;101397.47;;;0.61;nan
46408;BME280;32110;45.724;21.276;2023-12-28T05:43:37;101390.78;;;0.59;nan
46408;BME280;32110;45.724;21.276;2023-12-28T05:46:02;101410.72;;;0.68;nan
46408;BME280;32110;45.724;21.276;2023-12-28T05:48:28;101408.66;;;0.72;nan
46408;BME280;32110;45.724;21.276;2023-12-28T05:50:53;101404.97;;;0.64;nan
46408;BME280;32110;45.724;21.276;2023-12-28T05:53:19;101395.69;;;0.72;nan
46408;BME280;32110;45.724;21.276;2023-12-28T05:55:44;101396.66;;;0.71;nan
46408;BME280;32110;45.724;21.276;2023-12-28T05:58:10;101385.09;;;0.65;nan
46408;BME280;32110;45.724;21.276;2023-12-28T06:00:35;101393.66;;;0.66;nan
46408;BME280;32110;45.724;21.276;2023-12-28T06:03:04;101387.38;;;0.58;nan
46408;BME280;32110;45.724;21.276;2023-12-28T06:05:30;101394.59;;;0.64;nan
46408;BME280;32110;45.724;21.276;2023-12-28T06:07:56;101393.38;;;0.59;nan
46408;BME280;32110;45.724;21.276;2023-12-28T06:10:21;101381.91;;;0.52;nan
46408;BME280;32110;45.724;21.276;2023-12-28T06:12:47;101400.34;;;0.58;nan
46408;BME280;32110;45.724;21.276;2023-12-28T06:15:12;101397.47;;;0.52;nan
46408;BME280;32110;45.724;21.276;2023-12-28T06:17:38;101410.84;;;0.57;nan
46408;BME280;32110;45.724;21.276;2023-12-28T06:20:03;101409.50;;;0.53;nan
46408;BME280;32110;45.724;21.276;2023-12-28T06:22:29;101381.38;;;0.38;nan
46408;BME280;32110;45.724;21.276;2023-12-28T06:24:55;101377.13;;;0.37;nan
46408;BME280;32110;45.724;21.276;2023-12-28T06:27:21;101393.38;;;0.49;nan
46408;BME280;32110;45.724;21.276;2023-12-28T06:29:46;101397.88;;;0.47;nan
46408;BME280;32110;45.724;21.276;2023-12-28T06:32:12;101347.38;;;0.22;nan
46408;BME280;32110;45.724;21.276;2023-12-28T06:34:37;101375.22;;;0.39;nan
46408;BME280;32110;45.724;21.276;2023-12-28T06:37:03;101390.38;;;0.44;nan
46408;BME280;32110;45.724;21.276;2023-12-28T06:39:28;101387.66;;;0.46;nan
46408;BME280;32110;45.724;21.276;2023-12-28T06:41:54;101363.88;;;0.31;nan
46408;BME280;32110;45.724;21.276;2023-12-28T06:44:19;101384.78;;;0.39;nan
46408;BME280;32110;45.724;21.276;2023-12-28T06:46:45;101390.66;;;0.41;nan
46408;BME280;32110;45.724;21.276;2023-12-28T06:49:10;101395.13;;;0.39;nan
46408;BME280;32110;45.724;21.276;2023-12-28T06:51:36;101397.03;;;0.37;nan
46408;BME280;32110;45.724;21.276;2023-12-28T06:54:01;101391.16;;;0.35;nan
46408;BME280;32110;45.724;21.276;2023-12-28T06:56:26;101409.31;;;0.45;nan
46408;BME280;32110;45.724;21.276;2023-12-28T06:58:52;101424.06;;;0.44;nan
46408;BME280;32110;45.724;21.276;2023-12-28T07:01:17;101433.88;;;0.50;nan
46408;BME280;32110;45.724;21.276;2023-12-28T07:03:43;101412.47;;;0.38;nan
46408;BME280;32110;45.724;21.276;2023-12-28T07:06:09;101425.56;;;0.47;nan
46408;BME280;32110;45.724;21.276;2023-12-28T07:08:34;101403.72;;;0.39;nan
46408;BME280;32110;45.724;21.276;2023-12-28T07:10:59;101420.91;;;0.50;nan
46408;BME280;32110;45.724;21.276;2023-12-28T07:13:26;101427.19;;;0.48;nan
46408;BME280;32110;45.724;21.276;2023-12-28T07:15:51;101441.81;;;0.58;nan
46408;BME280;32110;45.724;21.276;2023-12-28T07:18:17;101434.16;;;0.57;nan
46408;BME280;32110;45.724;21.276;2023-12-28T07:20:42;101435.28;;;0.64;nan
46408;BME280;32110;45.724;21.276;2023-12-28T07:23:08;101423.78;;;0.57;nan
46408;BME280;32110;45.724;21.276;2023-12-28T07:25:36;101440.06;;;0.69;nan
46408;BME280;32110;45.724;21.276;2023-12-28T07:28:01;101439.34;;;0.67;nan
46408;BME280;32110;45.724;21.276;2023-12-28T07:30:28;101438.81;;;0.63;nan
46408;BME280;32110;45.724;21.276;2023-12-28T07:32:53;101456.41;;;0.69;nan
46408;BME280;32110;45.724;21.276;2023-12-28T07:35:18;101460.38;;;0.73;nan
46408;BME280;32110;45.724;21.276;2023-12-28T07:37:44;101450.84;;;0.74;nan
46408;BME280;32110;45.724;21.276;2023-12-28T07:40:11;101436.78;;;0.76;nan
46408;BME280;32110;45.724;21.276;2023-12-28T07:42:37;101391.75;;;0.48;nan
46408;BME280;32110;45.724;21.276;2023-12-28T07:45:03;101420.97;;;0.70;nan
46408;BME280;32110;45.724;21.276;2023-12-28T07:47:29;101417.00;;;0.75;nan
46408;BME280;32110;45.724;21.276;2023-12-28T07:49:54;101442.25;;;0.93;nan
46408;BME280;32110;45.724;21.276;2023-12-28T07:52:20;101425.59;;;0.85;nan
46408;BME280;32110;45.724;21.276;2023-12-28T07:54:45;101441.44;;;1.02;nan
46408;BME280;32110;45.724;21.276;2023-12-28T07:57:11;101392.31;;;0.81;nan
46408;BME280;32110;45.724;21.276;2023-12-28T07:59:36;101442.13;;;1.14;nan
46408;BME280;32110;45.724;21.276;2023-12-28T08:02:01;101420.16;;;1.08;nan
46408;BME280;32110;45.724;21.276;2023-12-28T08:04:27;101440.50;;;1.22;nan
46408;BME280;32110;45.724;21.276;2023-12-28T08:06:52;101439.25;;;1.26;nan
46408;BME280;32110;45.724;21.276;2023-12-28T08:09:18;101459.56;;;1.41;nan
46408;BME280;32110;45.724;21.276;2023-12-28T08:11:43;101443.59;;;1.36;nan
46408;BME280;32110;45.724;21.276;2023-12-28T08:14:09;101462.84;;;1.53;nan
46408;BME280;32110;45.724;21.276;2023-12-28T08:16:34;101462.81;;;1.62;nan
46408;BME280;32110;45.724;21.276;2023-12-28T08:43:16;101471.28;;;2.67;nan
46408;BME280;32110;45.724;21.276;2023-12-28T08:45:42;101460.16;;;2.74;nan
46408;BME280;32110;45.724;21.276;2023-12-28T08:48:07;101453.09;;;2.85;nan
46408;BME280;32110;45.724;21.276;2023-12-28T08:50:33;101462.91;;;3.09;nan
46408;BME280;32110;45.724;21.276;2023-12-28T08:52:58;101452.34;;;3.10;nan
46408;BME280;32110;45.724;21.276;2023-12-28T08:55:24;101436.44;;;3.13;nan
46408;BME280;32110;45.724;21.276;2023-12-28T08:57:49;101453.53;;;3.34;nan
46408;BME280;32110;45.724;21.276;2023-12-28T09:00:15;101446.75;;;3.41;nan
46408;BME280;32110;45.724;21.276;2023-12-28T09:02:42;101458.22;;;3.56;nan
46408;BME280;32110;45.724;21.276;2023-12-28T09:05:08;101440.66;;;3.58;nan
46408;BME280;32110;45.724;21.276;2023-12-28T09:07:34;101443.69;;;3.72;nan
46408;BME280;32110;45.724;21.276;2023-12-28T10:27:53;101313.59;;;7.64;nan
46408;BME280;32110;45.724;21.276;2023-12-28T11:29:47;101308.53;;;10.03;nan
46408;BME280;32110;45.724;21.276;2023-12-28T11:32:13;101279.59;;;10.03;nan
46408;BME280;32110;45.724;21.276;2023-12-28T11:34:38;101297.44;;;10.21;nan
46408;BME280;32110;45.724;21.276;2023-12-28T11:37:07;101296.06;;;10.32;nan
46408;BME280;32110;45.724;21.276;2023-12-28T11:39:34;101288.38;;;10.43;nan
46408;BME280;32110;45.724;21.276;2023-12-28T11:42:05;101299.13;;;10.55;nan
46408;BME280;32110;45.724;21.276;2023-12-28T12:08:57;101317.59;;;11.60;nan
46408;BME280;32110;45.724;21.276;2023-12-28T12:16:16;101259.03;;;11.45;nan
46408;BME280;32110;45.724;21.276;2023-12-28T12:18:42;101240.56;;;11.45;nan
46408;BME280;32110;45.724;21.276;2023-12-28T12:21:08;101253.47;;;11.60;nan
46408;BME280;32110;45.724;21.276;2023-12-28T12:23:33;101235.78;;;11.67;nan
46408;BME280;32110;45.724;21.276;2023-12-28T12:25:59;101251.34;;;11.82;nan
46408;BME280;32110;45.724;21.276;2023-12-28T12:28:24;101244.63;;;11.86;nan
46408;BME280;32110;45.724;21.276;2023-12-28T12:30:54;101247.81;;;11.95;nan
46408;BME280;32110;45.724;21.276;2023-12-28T12:33:21;101246.19;;;12.00;nan
46408;BME280;32110;45.724;21.276;2023-12-28T12:35:47;101236.44;;;12.01;nan
46408;BME280;32110;45.724;21.276;2023-12-28T12:38:13;101225.88;;;12.01;nan
46408;BME280;32110;45.724;21.276;2023-12-28T12:40:39;101222.19;;;12.02;nan
46408;BME280;32110;45.724;21.276;2023-12-28T12:43:06;101237.78;;;12.10;nan
46408;BME280;32110;45.724;21.276;2023-12-28T12:45:34;101229.06;;;12.09;nan
46408;BME280;32110;45.724;21.276;2023-12-28T12:48:00;101225.59;;;12.09;nan
46408;BME280;32110;45.724;21.276;2023-12-28T12:50:26;101229.06;;;12.09;nan
46408;BME280;32110;45.724;21.276;2023-12-28T12:52:52;101220.53;;;12.07;nan
46408;BME280;32110;45.724;21.276;2023-12-28T12:55:17;101224.75;;;12.15;nan
46408;BME280;32110;45.724;21.276;2023-12-28T12:57:43;101223.72;;;12.16;nan
46408;BME280;32110;45.724;21.276;2023-12-28T13:00:10;101208.75;;;12.10;nan
46408;BME280;32110;45.724;21.276;2023-12-28T13:02:37;101203.66;;;12.08;nan
46408;BME280;32110;45.724;21.276;2023-12-28T13:05:03;101216.38;;;12.18;nan
46408;BME280;32110;45.724;21.276;2023-12-28T13:07:32;101212.22;;;12.04;nan
46408;BME280;32110;45.724;21.276;2023-12-28T13:09:57;101205.16;;;12.04;nan
46408;BME280;32110;45.724;21.276;2023-12-28T13:12:23;101199.63;;;12.06;nan
46408;BME280;32110;45.724;21.276;2023-12-28T13:14:49;101189.13;;;11.99;nan
46408;BME280;32110;45.724;21.276;2023-12-28T13:17:14;101194.16;;;12.07;nan
46408;BME280;32110;45.724;21.276;2023-12-28T13:19:40;101209.50;;;12.17;nan
46408;BME280;32110;45.724;21.276;2023-12-28T13:22:05;101199.38;;;12.14;nan
46408;BME280;32110;45.724;21.276;2023-12-28T13:24:31;101178.47;;;12.12;nan
46408;BME280;32110;45.724;21.276;2023-12-28T13:26:57;101183.47;;;12.21;nan
46408;BME280;32110;45.724;21.276;2023-12-28T13:29:22;101193.00;;;12.22;nan
46408;BME280;32110;45.724;21.276;2023-12-28T13:31:48;101177.28;;;12.08;nan
46408;BME280;32110;45.724;21.276;2023-12-28T13:34:16;101189.78;;;12.20;nan
46408;BME280;32110;45.724;21.276;2023-12-28T13:36:41;101194.66;;;12.16;nan
46408;BME280;32110;45.724;21.276;2023-12-28T13:39:07;101189.63;;;12.15;nan
46408;BME280;32110;45.724;21.276;2023-12-28T13:41:36;101204.44;;;12.16;nan
46408;BME280;32110;45.724;21.276;2023-12-28T13:44:02;101190.47;;;12.08;nan
46408;BME280;32110;45.724;21.276;2023-12-28T13:46:30;101196.75;;;12.14;nan
46408;BME280;32110;45.724;21.276;2023-12-28T13:48:55;101181.78;;;12.01;nan
46408;BME280;32110;45.724;21.276;2023-12-28T13:51:22;101193.34;;;12.07;nan
46408;BME280;32110;45.724;21.276;2023-12-28T13:53:47;101190.25;;;12.10;nan
46408;BME280;32110;45.724;21.276;2023-12-28T13:56:13;101174.63;;;12.08;nan
46408;BME280;32110;45.724;21.276;2023-12-28T13:58:38;101185.94;;;12.16;nan
46408;BME280;32110;45.724;21.276;2023-12-28T14:01:04;101167.94;;;12.06;nan
46408;BME280;32110;45.724;21.276;2023-12-28T14:03:29;101176.03;;;12.11;nan
46408;BME280;32110;45.724;21.276;2023-12-28T14:05:54;101184.53;;;12.13;nan
46408;BME280;32110;45.724;21.276;2023-12-28T14:08:20;101182.72;;;12.13;nan
46408;BME280;32110;45.724;21.276;2023-12-28T14:10:45;101189.63;;;12.15;nan
46408;BME280;32110;45.724;21.276;2023-12-28T14:13:11;101196.31;;;12.17;nan
46408;BME280;32110;45.724;21.276;2023-12-28T14:15:36;101179.91;;;12.08;nan
46408;BME280;32110;45.724;21.276;2023-12-28T14:18:04;101192.09;;;12.09;nan
46408;BME280;32110;45.724;21.276;2023-12-28T14:20:30;101191.13;;;12.04;nan
46408;BME280;32110;45.724;21.276;2023-12-28T14:22:56;101201.84;;;12.09;nan
46408;BME280;32110;45.724;21.276;2023-12-28T14:25:22;101204.91;;;12.06;nan
46408;BME280;32110;45.724;21.276;2023-12-28T14:27:48;101191.34;;;12.02;nan
46408;BME280;32110;45.724;21.276;2023-12-28T14:30:14;101187.06;;;12.01;nan
46408;BME280;32110;45.724;21.276;2023-12-28T14:32:40;101184.91;;;11.91;nan
46408;BME280;32110;45.724;21.276;2023-12-28T14:35:06;101176.19;;;11.84;nan
46408;BME280;32110;45.724;21.276;2023-12-28T14:37:32;101165.97;;;11.69;nan
46408;BME280;32110;45.724;21.276;2023-12-28T14:39:57;101177.09;;;11.71;nan
46408;BME280;32110;45.724;21.276;2023-12-28T14:42:23;101187.66;;;11.71;nan
46408;BME280;32110;45.724;21.276;2023-12-28T14:44:48;101184.47;;;11.63;nan
46408;BME280;32110;45.724;21.276;2023-12-28T14:47:15;101184.91;;;11.60;nan
46408;BME280;32110;45.724;21.276;2023-12-28T14:49:41;101184.13;;;11.53;nan
46408;BME280;32110;45.724;21.276;2023-12-28T14:52:06;101192.84;;;11.53;nan
46408;BME280;32110;45.724;21.276;2023-12-28T14:54:31;101172.81;;;11.39;nan
46408;BME280;32110;45.724;21.276;2023-12-28T14:56:57;101189.06;;;11.42;nan
46408;BME280;32110;45.724;21.276;2023-12-28T14:59:22;101189.69;;;11.38;nan
46408;BME280;32110;45.724;21.276;2023-12-28T15:01:49;101179.19;;;11.24;nan
46408;BME280;32110;45.724;21.276;2023-12-28T15:04:14;101190.75;;;11.23;nan
46408;BME280;32110;45.724;21.276;2023-12-28T15:06:40;101188.59;;;11.07;nan
46408;BME280;32110;45.724;21.276;2023-12-28T15:09:05;101186.22;;;10.92;nan
46408;BME280;32110;45.724;21.276;2023-12-28T15:11:31;101203.03;;;10.91;nan
46408;BME280;32110;45.724;21.276;2023-12-28T15:13:57;101178.75;;;10.76;nan
46408;BME280;32110;45.724;21.276;2023-12-28T15:16:23;101170.25;;;10.67;nan
46408;BME280;32110;45.724;21.276;2023-12-28T15:18:48;101182.81;;;10.65;nan
46408;BME280;32110;45.724;21.276;2023-12-28T15:21:14;101155.53;;;10.39;nan
46408;BME280;32110;45.724;21.276;2023-12-28T15:23:40;101186.28;;;10.46;nan
46408;BME280;32110;45.724;21.276;2023-12-28T15:26:05;101176.78;;;10.31;nan
46408;BME280;32110;45.724;21.276;2023-12-28T15:28:32;101172.53;;;10.17;nan
46408;BME280;32110;45.724;21.276;2023-12-28T15:30:57;101178.59;;;10.17;nan
46408;BME280;32110;45.724;21.276;2023-12-28T15:33:23;101178.00;;;10.09;nan
46408;BME280;32110;45.724;21.276;2023-12-28T15:35:48;101169.69;;;9.92;nan
46408;BME280;32110;45.724;21.276;2023-12-28T15:38:13;101175.34;;;9.82;nan
46408;BME280;32110;45.724;21.276;2023-12-28T15:40:41;101155.47;;;9.59;nan
46408;BME280;32110;45.724;21.276;2023-12-28T15:43:07;101163.97;;;9.62;nan
46408;BME280;32110;45.724;21.276;2023-12-28T15:45:32;101171.03;;;9.54;nan
46408;BME280;32110;45.724;21.276;2023-12-28T15:48:00;101163.91;;;9.35;nan
46408;BME280;32110;45.724;21.276;2023-12-28T15:50:25;101171.59;;;9.30;nan
46408;BME280;32110;45.724;21.276;2023-12-28T15:52:50;101177.41;;;9.19;nan
46408;BME280;32110;45.724;21.276;2023-12-28T15:55:16;101173.91;;;9.05;nan
46408;BME280;32110;45.724;21.276;2023-12-28T15:57:42;101169.81;;;8.89;nan
46408;BME280;32110;45.724;21.276;2023-12-28T16:00:08;101174.81;;;8.84;nan
46408;BME280;32110;45.724;21.276;2023-12-28T16:02:34;101156.75;;;8.67;nan
46408;BME280;32110;45.724;21.276;2023-12-28T16:04:59;101173.72;;;8.65;nan
46408;BME280;32110;45.724;21.276;2023-12-28T16:07:25;101171.22;;;8.57;nan
46408;BME280;32110;45.724;21.276;2023-12-28T16:09:50;101152.06;;;8.35;nan
46408;BME280;32110;45.724;21.276;2023-12-28T16:12:16;101164.78;;;8.38;nan
46408;BME280;32110;45.724;21.276;2023-12-28T16:14:44;101169.63;;;8.34;nan
46408;BME280;32110;45.724;21.276;2023-12-28T16:17:10;101171.41;;;8.27;nan
46408;BME280;32110;45.724;21.276;2023-12-28T16:19:36;101179.66;;;8.24;nan
46408;BME280;32110;45.724;21.276;2023-12-28T16:22:03;101168.88;;;8.12;nan
46408;BME280;32110;45.724;21.276;2023-12-28T16:24:28;101160.47;;;8.02;nan
46408;BME280;32110;45.724;21.276;2023-12-28T16:26:53;101164.88;;;7.95;nan
46408;BME280;32110;45.724;21.276;2023-12-28T16:29:19;101158.75;;;7.87;nan
46408;BME280;32110;45.724;21.276;2023-12-28T16:31:44;101162.53;;;7.78;nan
46408;BME280;32110;45.724;21.276;2023-12-28T16:34:10;101150.84;;;7.59;nan
46408;BME280;32110;45.724;21.276;2023-12-28T16:36:35;101156.19;;;7.51;nan
46408;BME280;32110;45.724;21.276;2023-12-28T16:39:01;101149.81;;;7.39;nan
46408;BME280;32110;45.724;21.276;2023-12-28T16:41:26;101156.94;;;7.45;nan
46408;BME280;32110;45.724;21.276;2023-12-28T16:43:52;101161.34;;;7.44;nan
46408;BME280;32110;45.724;21.276;2023-12-28T16:46:18;101163.97;;;7.44;nan
46408;BME280;32110;45.724;21.276;2023-12-28T16:48:43;101170.41;;;7.42;nan
46408;BME280;32110;45.724;21.276;2023-12-28T16:51:09;101178.25;;;7.42;nan
46408;BME280;32110;45.724;21.276;2023-12-28T16:53:35;101167.81;;;7.27;nan
46408;BME280;32110;45.724;21.276;2023-12-28T16:56:00;101167.56;;;7.22;nan
46408;BME280;32110;45.724;21.276;2023-12-28T16:58:26;101180.03;;;7.20;nan
46408;BME280;32110;45.724;21.276;2023-12-28T17:00:52;101145.38;;;6.88;nan
46408;BME280;32110;45.724;21.276;2023-12-28T17:03:18;101159.50;;;6.87;nan
46408;BME280;32110;45.724;21.276;2023-12-28T17:05:43;101186.91;;;6.91;nan
46408;BME280;32110;45.724;21.276;2023-12-28T17:08:09;101172.00;;;6.77;nan
46408;BME280;32110;45.724;21.276;2023-12-28T17:10:36;101172.75;;;6.71;nan
46408;BME280;32110;45.724;21.276;2023-12-28T17:13:09;101184.03;;;6.71;nan
46408;BME280;32110;45.724;21.276;2023-12-28T17:15:35;101176.88;;;6.65;nan
46408;BME280;32110;45.724;21.276;2023-12-28T17:18:03;101188.88;;;6.59;nan
46408;BME280;32110;45.724;21.276;2023-12-28T17:20:29;101187.63;;;6.55;nan
46408;BME280;32110;45.724;21.276;2023-12-28T17:23:01;101172.91;;;6.39;nan
46408;BME280;32110;45.724;21.276;2023-12-28T17:28:20;101192.19;;;6.38;nan
46408;BME280;32110;45.724;21.276;2023-12-28T17:30:51;101152.44;;;6.05;nan
46408;BME280;32110;45.724;21.276;2023-12-28T17:33:17;101191.81;;;6.27;nan
46408;BME280;32110;45.724;21.276;2023-12-28T17:35:44;101187.00;;;6.15;nan
46408;BME280;32110;45.724;21.276;2023-12-28T17:38:10;101196.00;;;6.13;nan
46408;BME280;32110;45.724;21.276;2023-12-28T17:40:36;101200.13;;;6.07;nan
46408;BME280;32110;45.724;21.276;2023-12-28T17:43:15;101202.75;;;6.07;nan
46408;BME280;32110;45.724;21.276;2023-12-28T17:48:20;101192.91;;;5.86;nan
46408;BME280;32110;45.724;21.276;2023-12-28T17:50:49;101217.34;;;5.70;nan
46408;BME280;32110;45.724;21.276;2023-12-28T17:53:15;101213.50;;;5.58;nan
46408;BME280;32110;45.724;21.276;2023-12-28T17:55:41;101218.91;;;5.57;nan
46408;BME280;32110;45.724;21.276;2023-12-28T17:58:06;101208.31;;;5.50;nan
46408;BME280;32110;45.724;21.276;2023-12-28T18:00:31;101202.94;;;5.43;nan
46408;BME280;32110;45.724;21.276;2023-12-28T18:02:57;101195.69;;;5.30;nan
46408;BME280;32110;45.724;21.276;2023-12-28T18:05:22;101195.38;;;5.25;nan
46408;BME280;32110;45.724;21.276;2023-12-28T18:07:48;101203.84;;;5.27;nan
46408;BME280;32110;45.724;21.276;2023-12-28T18:10:13;101207.44;;;5.26;nan
46408;BME280;32110;45.724;21.276;2023-12-28T18:12:39;101184.50;;;5.14;nan
46408;BME280;32110;45.724;21.276;2023-12-28T18:15:04;101201.91;;;5.21;nan
46408;BME280;32110;45.724;21.276;2023-12-28T18:17:30;101190.56;;;5.06;nan
46408;BME280;32110;45.724;21.276;2023-12-28T18:19:56;101210.63;;;5.05;nan
46408;BME280;32110;45.724;21.276;2023-12-28T18:22:21;101214.81;;;4.67;nan
46408;BME280;32110;45.724;21.276;2023-12-28T18:24:47;101196.88;;;4.56;nan
46408;BME280;32110;45.724;21.276;2023-12-28T18:27:15;101215.78;;;4.66;nan
46408;BME280;32110;45.724;21.276;2023-12-28T18:29:40;101213.31;;;4.64;nan
46408;BME280;32110;45.724;21.276;2023-12-28T18:32:06;101210.41;;;4.67;nan
46408;BME280;32110;45.724;21.276;2023-12-28T18:34:32;101206.34;;;4.65;nan
46408;BME280;32110;45.724;21.276;2023-12-28T18:36:58;101196.06;;;4.63;nan
46408;BME280;32110;45.724;21.276;2023-12-28T18:39:23;101202.88;;;4.64;nan
46408;BME280;32110;45.724;21.276;2023-12-28T18:41:53;101206.19;;;4.58;nan
46408;BME280;32110;45.724;21.276;2023-12-28T18:44:19;101201.94;;;4.49;nan
46408;BME280;32110;45.724;21.276;2023-12-28T18:46:44;101219.88;;;4.60;nan
46408;BME280;32110;45.724;21.276;2023-12-28T18:49:10;101177.69;;;4.32;nan
46408;BME280;32110;45.724;21.276;2023-12-28T18:51:36;101207.00;;;4.51;nan
46408;BME280;32110;45.724;21.276;2023-12-28T18:54:01;101196.25;;;4.45;nan
46408;BME280;32110;45.724;21.276;2023-12-28T18:56:28;101205.84;;;4.45;nan
46408;BME280;32110;45.724;21.276;2023-12-28T18:58:53;101194.13;;;4.33;nan
46408;BME280;32110;45.724;21.276;2023-12-28T19:01:19;101193.00;;;4.27;nan
46408;BME280;32110;45.724;21.276;2023-12-28T19:03:44;101196.56;;;4.26;nan
46408;BME280;32110;45.724;21.276;2023-12-28T19:06:14;101223.13;;;4.38;nan
46408;BME280;32110;45.724;21.276;2023-12-28T19:08:40;101204.09;;;4.29;nan
46408;BME280;32110;45.724;21.276;2023-12-28T19:11:13;101214.53;;;4.29;nan
46408;BME280;32110;45.724;21.276;2023-12-28T19:13:39;101205.38;;;4.25;nan
46408;BME280;32110;45.724;21.276;2023-12-28T19:16:05;101207.66;;;4.20;nan
46408;BME280;32110;45.724;21.276;2023-12-28T19:18:30;101199.84;;;4.12;nan
46408;BME280;32110;45.724;21.276;2023-12-28T19:20:55;101206.66;;;4.04;nan
46408;BME280;32110;45.724;21.276;2023-12-28T19:23:21;101172.31;;;3.76;nan
46408;BME280;32110;45.724;21.276;2023-12-28T19:25:46;101195.09;;;3.82;nan
46408;BME280;32110;45.724;21.276;2023-12-28T19:28:12;101193.47;;;3.81;nan
46408;BME280;32110;45.724;21.276;2023-12-28T19:30:37;101216.44;;;3.86;nan
46408;BME280;32110;45.724;21.276;2023-12-28T19:33:03;101214.66;;;3.78;nan
46408;BME280;32110;45.724;21.276;2023-12-28T19:35:28;101205.81;;;3.63;nan
46408;BME280;32110;45.724;21.276;2023-12-28T19:37:54;101201.41;;;3.55;nan
46408;BME280;32110;45.724;21.276;2023-12-28T19:40:23;101224.34;;;3.60;nan
46408;BME280;32110;45.724;21.276;2023-12-28T19:42:48;101223.50;;;3.51;nan